sensor_id;sensor_type;location;lat;lon;timestamp;temperature;humidity
72114;SHT31;59989;46.220;19.888;2024-03-07T00:01:33;6.53;87.49
72114;SHT31;59989;46.220;19.888;2024-03-07T00:04:36;6.45;87.97
72114;SHT31;59989;46.220;19.888;2024-03-07T00:07:38;6.38;88.61
72114;SHT31;59989;46.220;19.888;2024-03-07T00:10:42;6.41;88.85
72114;SHT31;59989;46.220;19.888;2024-03-07T00:13:46;6.48;88.50
72114;SHT31;59989;46.220;19.888;2024-03-07T00:16:50;6.51;88.09
72114;SHT31;59989;46.220;19.888;2024-03-07T00:19:52;6.52;87.37
72114;SHT31;59989;46.220;19.888;2024-03-07T00:22:55;6.59;87.45
72114;SHT31;59989;46.220;19.888;2024-03-07T00:25:57;6.59;87.64
72114;SHT31;59989;46.220;19.888;2024-03-07T00:29:00;6.62;87.87
72114;SHT31;59989;46.220;19.888;2024-03-07T00:32:03;6.62;87.82
72114;SHT31;59989;46.220;19.888;2024-03-07T00:35:06;6.64;87.73
72114;SHT31;59989;46.220;19.888;2024-03-07T00:38:11;6.65;87.52
72114;SHT31;59989;46.220;19.888;2024-03-07T00:41:13;6.68;87.55
72114;SHT31;59989;46.220;19.888;2024-03-07T00:44:16;6.68;87.66
72114;SHT31;59989;46.220;19.888;2024-03-07T00:47:19;6.71;87.44
72114;SHT31;59989;46.220;19.888;2024-03-07T00:50:21;6.69;87.62
72114;SHT31;59989;46.220;19.888;2024-03-07T00:53:24;6.67;87.58
72114;SHT31;59989;46.220;19.888;2024-03-07T00:56:26;6.67;87.82
72114;SHT31;59989;46.220;19.888;2024-03-07T00:59:29;6.69;88.51
72114;SHT31;59989;46.220;19.888;2024-03-07T01:02:32;6.65;88.20
72114;SHT31;59989;46.220;19.888;2024-03-07T01:05:37;6.62;89.22
72114;SHT31;59989;46.220;19.888;2024-03-07T01:08:40;6.61;88.92
72114;SHT31;59989;46.220;19.888;2024-03-07T01:11:44;6.56;88.75
72114;SHT31;59989;46.220;19.888;2024-03-07T01:14:50;6.55;88.10
72114;SHT31;59989;46.220;19.888;2024-03-07T01:17:54;6.48;88.02
72114;SHT31;59989;46.220;19.888;2024-03-07T01:20:56;6.41;87.98
72114;SHT31;59989;46.220;19.888;2024-03-07T01:23:59;6.40;88.33
72114;SHT31;59989;46.220;19.888;2024-03-07T01:27:06;6.38;88.38
72114;SHT31;59989;46.220;19.888;2024-03-07T01:30:09;6.37;88.05
72114;SHT31;59989;46.220;19.888;2024-03-07T01:33:11;6.38;88.08
72114;SHT31;59989;46.220;19.888;2024-03-07T01:36:14;6.34;87.95
72114;SHT31;59989;46.220;19.888;2024-03-07T01:39:17;6.35;88.00
72114;SHT31;59989;46.220;19.888;2024-03-07T01:42:20;6.37;88.03
72114;SHT31;59989;46.220;19.888;2024-03-07T01:45:23;6.37;88.15
72114;SHT31;59989;46.220;19.888;2024-03-07T01:48:27;6.31;88.26
72114;SHT31;59989;46.220;19.888;2024-03-07T01:51:31;6.32;87.98
72114;SHT31;59989;46.220;19.888;2024-03-07T01:54:34;6.31;88.25
72114;SHT31;59989;46.220;19.888;2024-03-07T01:57:37;6.27;87.97
72114;SHT31;59989;46.220;19.888;2024-03-07T02:00:40;6.30;87.89
72114;SHT31;59989;46.220;19.888;2024-03-07T02:03:46;6.27;87.85
72114;SHT31;59989;46.220;19.888;2024-03-07T02:06:50;6.30;88.30
72114;SHT31;59989;46.220;19.888;2024-03-07T02:10:03;6.35;87.98
72114;SHT31;59989;46.220;19.888;2024-03-07T02:13:08;6.31;87.96
72114;SHT31;59989;46.220;19.888;2024-03-07T02:16:11;6.37;88.08
72114;SHT31;59989;46.220;19.888;2024-03-07T02:19:14;6.34;88.21
72114;SHT31;59989;46.220;19.888;2024-03-07T02:22:18;6.34;88.05
72114;SHT31;59989;46.220;19.888;2024-03-07T02:25:21;6.34;88.02
72114;SHT31;59989;46.220;19.888;2024-03-07T02:28:24;6.34;88.08
72114;SHT31;59989;46.220;19.888;2024-03-07T02:31:26;6.32;87.78
72114;SHT31;59989;46.220;19.888;2024-03-07T02:34:37;6.32;87.82
72114;SHT31;59989;46.220;19.888;2024-03-07T02:37:40;6.31;87.72
72114;SHT31;59989;46.220;19.888;2024-03-07T02:40:42;6.31;88.13
72114;SHT31;59989;46.220;19.888;2024-03-07T02:43:45;6.28;88.21
72114;SHT31;59989;46.220;19.888;2024-03-07T02:46:47;6.28;88.19
72114;SHT31;59989;46.220;19.888;2024-03-07T02:49:50;6.30;88.30
72114;SHT31;59989;46.220;19.888;2024-03-07T02:52:52;6.30;88.28
72114;SHT31;59989;46.220;19.888;2024-03-07T02:55:55;6.28;88.52
72114;SHT31;59989;46.220;19.888;2024-03-07T02:58:57;6.28;88.43
72114;SHT31;59989;46.220;19.888;2024-03-07T03:02:05;6.20;88.33
72114;SHT31;59989;46.220;19.888;2024-03-07T03:05:08;6.20;88.46
72114;SHT31;59989;46.220;19.888;2024-03-07T03:08:12;6.17;88.71
72114;SHT31;59989;46.220;19.888;2024-03-07T03:11:16;6.18;88.90
72114;SHT31;59989;46.220;19.888;2024-03-07T03:14:19;6.17;89.25
72114;SHT31;59989;46.220;19.888;2024-03-07T03:17:21;6.18;89.48
72114;SHT31;59989;46.220;19.888;2024-03-07T03:20:24;6.14;89.39
72114;SHT31;59989;46.220;19.888;2024-03-07T03:23:27;6.14;89.74
72114;SHT31;59989;46.220;19.888;2024-03-07T03:26:30;6.09;90.24
72114;SHT31;59989;46.220;19.888;2024-03-07T03:29:33;6.16;90.27
72114;SHT31;59989;46.220;19.888;2024-03-07T03:32:36;6.09;90.08
72114;SHT31;59989;46.220;19.888;2024-03-07T03:35:39;6.11;90.28
72114;SHT31;59989;46.220;19.888;2024-03-07T03:38:42;6.07;90.80
72114;SHT31;59989;46.220;19.888;2024-03-07T03:41:44;6.03;90.74
72114;SHT31;59989;46.220;19.888;2024-03-07T03:44:47;6.04;90.85
72114;SHT31;59989;46.220;19.888;2024-03-07T03:47:50;6.01;91.24
72114;SHT31;59989;46.220;19.888;2024-03-07T03:50:53;5.99;91.15
72114;SHT31;59989;46.220;19.888;2024-03-07T03:53:56;5.97;91.37
72114;SHT31;59989;46.220;19.888;2024-03-07T03:56:59;5.96;91.58
72114;SHT31;59989;46.220;19.888;2024-03-07T04:00:03;5.94;91.80
72114;SHT31;59989;46.220;19.888;2024-03-07T04:03:12;5.94;92.16
72114;SHT31;59989;46.220;19.888;2024-03-07T04:06:14;5.87;92.37
72114;SHT31;59989;46.220;19.888;2024-03-07T04:09:17;5.89;92.45
72114;SHT31;59989;46.220;19.888;2024-03-07T04:12:20;5.85;92.71
72114;SHT31;59989;46.220;19.888;2024-03-07T04:15:23;5.85;92.77
72114;SHT31;59989;46.220;19.888;2024-03-07T04:18:29;5.82;92.64
72114;SHT31;59989;46.220;19.888;2024-03-07T04:21:31;5.77;93.10
72114;SHT31;59989;46.220;19.888;2024-03-07T04:24:35;5.79;93.17
72114;SHT31;59989;46.220;19.888;2024-03-07T04:27:38;5.77;93.30
72114;SHT31;59989;46.220;19.888;2024-03-07T04:30:42;5.80;93.58
72114;SHT31;59989;46.220;19.888;2024-03-07T04:33:44;5.79;93.69
72114;SHT31;59989;46.220;19.888;2024-03-07T04:36:48;5.77;93.54
72114;SHT31;59989;46.220;19.888;2024-03-07T04:39:51;5.76;93.37
72114;SHT31;59989;46.220;19.888;2024-03-07T04:42:53;5.79;93.51
72114;SHT31;59989;46.220;19.888;2024-03-07T04:45:55;5.77;93.70
72114;SHT31;59989;46.220;19.888;2024-03-07T04:48:58;5.73;93.74
72114;SHT31;59989;46.220;19.888;2024-03-07T04:52:02;5.74;93.79
72114;SHT31;59989;46.220;19.888;2024-03-07T04:55:06;5.73;93.73
72114;SHT31;59989;46.220;19.888;2024-03-07T04:58:10;5.72;93.89
72114;SHT31;59989;46.220;19.888;2024-03-07T05:01:13;5.69;93.71
72114;SHT31;59989;46.220;19.888;2024-03-07T05:04:16;5.67;93.69
72114;SHT31;59989;46.220;19.888;2024-03-07T05:07:19;5.73;93.91
72114;SHT31;59989;46.220;19.888;2024-03-07T05:10:21;5.74;94.29
72114;SHT31;59989;46.220;19.888;2024-03-07T05:13:24;5.72;93.80
72114;SHT31;59989;46.220;19.888;2024-03-07T05:16:29;5.72;93.89
72114;SHT31;59989;46.220;19.888;2024-03-07T05:19:32;5.72;94.03
72114;SHT31;59989;46.220;19.888;2024-03-07T05:22:39;5.72;94.16
72114;SHT31;59989;46.220;19.888;2024-03-07T05:25:49;5.70;94.21
72114;SHT31;59989;46.220;19.888;2024-03-07T05:28:52;5.74;94.21
72114;SHT31;59989;46.220;19.888;2024-03-07T05:32:20;5.79;94.36
72114;SHT31;59989;46.220;19.888;2024-03-07T05:35:22;5.76;94.23
72114;SHT31;59989;46.220;19.888;2024-03-07T05:38:25;5.79;94.03
72114;SHT31;59989;46.220;19.888;2024-03-07T05:41:30;5.83;94.30
72114;SHT31;59989;46.220;19.888;2024-03-07T05:44:33;5.83;93.99
72114;SHT31;59989;46.220;19.888;2024-03-07T05:47:36;5.82;94.07
72114;SHT31;59989;46.220;19.888;2024-03-07T05:50:38;5.90;94.01
72114;SHT31;59989;46.220;19.888;2024-03-07T05:53:41;5.92;93.83
72114;SHT31;59989;46.220;19.888;2024-03-07T05:56:44;5.90;93.62
72114;SHT31;59989;46.220;19.888;2024-03-07T05:59:46;5.94;93.81
72114;SHT31;59989;46.220;19.888;2024-03-07T06:02:50;5.94;93.72
72114;SHT31;59989;46.220;19.888;2024-03-07T06:05:52;6.01;93.72
72114;SHT31;59989;46.220;19.888;2024-03-07T06:08:56;6.03;93.76
72114;SHT31;59989;46.220;19.888;2024-03-07T06:11:59;6.07;93.80
72114;SHT31;59989;46.220;19.888;2024-03-07T06:15:11;6.10;93.91
72114;SHT31;59989;46.220;19.888;2024-03-07T06:18:13;6.13;93.88
72114;SHT31;59989;46.220;19.888;2024-03-07T06:21:17;6.10;93.66
72114;SHT31;59989;46.220;19.888;2024-03-07T06:24:21;6.13;93.58
72114;SHT31;59989;46.220;19.888;2024-03-07T06:27:24;6.13;93.16
72114;SHT31;59989;46.220;19.888;2024-03-07T06:30:40;6.18;93.29
72114;SHT31;59989;46.220;19.888;2024-03-07T06:33:43;6.21;93.30
72114;SHT31;59989;46.220;19.888;2024-03-07T06:36:46;6.34;93.17
72114;SHT31;59989;46.220;19.888;2024-03-07T06:39:48;6.25;92.73
72114;SHT31;59989;46.220;19.888;2024-03-07T06:42:51;6.24;92.60
72114;SHT31;59989;46.220;19.888;2024-03-07T06:45:56;6.28;92.72
72114;SHT31;59989;46.220;19.888;2024-03-07T06:48:59;6.28;92.62
72114;SHT31;59989;46.220;19.888;2024-03-07T06:52:02;6.37;92.59
72114;SHT31;59989;46.220;19.888;2024-03-07T06:55:05;6.38;92.52
72114;SHT31;59989;46.220;19.888;2024-03-07T06:58:11;6.38;92.33
72114;SHT31;59989;46.220;19.888;2024-03-07T07:01:14;6.40;92.41
72114;SHT31;59989;46.220;19.888;2024-03-07T07:04:21;6.44;92.34
72114;SHT31;59989;46.220;19.888;2024-03-07T07:07:25;6.45;92.10
72114;SHT31;59989;46.220;19.888;2024-03-07T07:10:28;6.45;92.50
72114;SHT31;59989;46.220;19.888;2024-03-07T07:13:31;6.52;92.27
72114;SHT31;59989;46.220;19.888;2024-03-07T07:16:34;6.49;92.23
72114;SHT31;59989;46.220;19.888;2024-03-07T07:19:38;6.58;92.55
72114;SHT31;59989;46.220;19.888;2024-03-07T07:22:42;6.59;92.46
72114;SHT31;59989;46.220;19.888;2024-03-07T07:25:45;6.55;92.38
72114;SHT31;59989;46.220;19.888;2024-03-07T07:28:48;6.48;92.12
72114;SHT31;59989;46.220;19.888;2024-03-07T07:31:51;6.48;92.10
72114;SHT31;59989;46.220;19.888;2024-03-07T07:34:54;6.52;92.08
72114;SHT31;59989;46.220;19.888;2024-03-07T07:37:57;6.48;92.46
72114;SHT31;59989;46.220;19.888;2024-03-07T07:41:01;6.46;92.13
72114;SHT31;59989;46.220;19.888;2024-03-07T07:44:03;6.37;91.79
72114;SHT31;59989;46.220;19.888;2024-03-07T07:47:06;6.34;92.47
72114;SHT31;59989;46.220;19.888;2024-03-07T07:50:10;6.27;92.74
72114;SHT31;59989;46.220;19.888;2024-03-07T07:53:16;6.31;93.15
72114;SHT31;59989;46.220;19.888;2024-03-07T07:56:18;6.22;92.60
72114;SHT31;59989;46.220;19.888;2024-03-07T07:59:23;6.22;92.98
72114;SHT31;59989;46.220;19.888;2024-03-07T08:02:26;6.24;93.15
72114;SHT31;59989;46.220;19.888;2024-03-07T08:05:32;6.18;93.02
72114;SHT31;59989;46.220;19.888;2024-03-07T08:08:35;6.21;93.09
72114;SHT31;59989;46.220;19.888;2024-03-07T08:11:40;6.24;93.41
72114;SHT31;59989;46.220;19.888;2024-03-07T08:14:44;6.21;93.31
72114;SHT31;59989;46.220;19.888;2024-03-07T08:17:47;6.20;93.44
72114;SHT31;59989;46.220;19.888;2024-03-07T08:20:50;6.13;93.11
72114;SHT31;59989;46.220;19.888;2024-03-07T08:23:57;6.10;92.88
72114;SHT31;59989;46.220;19.888;2024-03-07T08:27:01;6.07;92.88
72114;SHT31;59989;46.220;19.888;2024-03-07T08:30:06;6.11;93.47
72114;SHT31;59989;46.220;19.888;2024-03-07T08:33:09;6.20;93.58
72114;SHT31;59989;46.220;19.888;2024-03-07T08:36:12;6.16;93.40
72114;SHT31;59989;46.220;19.888;2024-03-07T08:39:15;6.20;93.25
72114;SHT31;59989;46.220;19.888;2024-03-07T08:42:18;6.20;93.36
72114;SHT31;59989;46.220;19.888;2024-03-07T08:45:21;6.18;93.26
72114;SHT31;59989;46.220;19.888;2024-03-07T08:48:24;6.14;93.19
72114;SHT31;59989;46.220;19.888;2024-03-07T08:51:26;6.10;93.39
72114;SHT31;59989;46.220;19.888;2024-03-07T08:54:29;6.18;93.46
72114;SHT31;59989;46.220;19.888;2024-03-07T08:57:31;6.17;93.24
72114;SHT31;59989;46.220;19.888;2024-03-07T09:00:34;6.27;93.52
72114;SHT31;59989;46.220;19.888;2024-03-07T09:03:40;6.28;93.26
72114;SHT31;59989;46.220;19.888;2024-03-07T09:06:43;6.30;93.13
72114;SHT31;59989;46.220;19.888;2024-03-07T09:09:48;6.25;92.87
72114;SHT31;59989;46.220;19.888;2024-03-07T09:12:51;6.32;93.19
72114;SHT31;59989;46.220;19.888;2024-03-07T09:15:55;6.41;93.62
72114;SHT31;59989;46.220;19.888;2024-03-07T09:18:57;6.38;93.37
72114;SHT31;59989;46.220;19.888;2024-03-07T09:22:00;6.38;93.28
72114;SHT31;59989;46.220;19.888;2024-03-07T09:25:03;6.48;93.61
72114;SHT31;59989;46.220;19.888;2024-03-07T09:28:05;6.42;93.38
72114;SHT31;59989;46.220;19.888;2024-03-07T09:31:09;6.48;93.42
72114;SHT31;59989;46.220;19.888;2024-03-07T09:34:12;6.49;93.20
72114;SHT31;59989;46.220;19.888;2024-03-07T09:37:14;6.41;93.04
72114;SHT31;59989;46.220;19.888;2024-03-07T09:40:17;6.51;93.42
72114;SHT31;59989;46.220;19.888;2024-03-07T09:43:21;6.40;92.97
72114;SHT31;59989;46.220;19.888;2024-03-07T09:46:25;6.32;93.29
72114;SHT31;59989;46.220;19.888;2024-03-07T09:49:28;6.38;93.71
72114;SHT31;59989;46.220;19.888;2024-03-07T09:52:31;6.38;93.59
72114;SHT31;59989;46.220;19.888;2024-03-07T09:55:34;6.42;93.92
72114;SHT31;59989;46.220;19.888;2024-03-07T09:58:36;6.52;94.00
72114;SHT31;59989;46.220;19.888;2024-03-07T10:01:43;6.44;93.70
72114;SHT31;59989;46.220;19.888;2024-03-07T10:04:49;6.48;93.86
72114;SHT31;59989;46.220;19.888;2024-03-07T10:07:53;6.41;93.42
72114;SHT31;59989;46.220;19.888;2024-03-07T10:10:56;6.49;93.81
72114;SHT31;59989;46.220;19.888;2024-03-07T10:13:59;6.42;93.65
72114;SHT31;59989;46.220;19.888;2024-03-07T10:17:02;6.46;93.84
72114;SHT31;59989;46.220;19.888;2024-03-07T10:20:07;6.44;93.44
72114;SHT31;59989;46.220;19.888;2024-03-07T10:23:19;6.46;93.93
72114;SHT31;59989;46.220;19.888;2024-03-07T10:26:23;6.48;93.85
72114;SHT31;59989;46.220;19.888;2024-03-07T10:29:26;6.55;93.63
72114;SHT31;59989;46.220;19.888;2024-03-07T10:32:30;6.56;93.78
72114;SHT31;59989;46.220;19.888;2024-03-07T10:35:33;6.58;93.84
72114;SHT31;59989;46.220;19.888;2024-03-07T10:38:37;6.52;93.95
72114;SHT31;59989;46.220;19.888;2024-03-07T10:41:45;6.58;94.21
72114;SHT31;59989;46.220;19.888;2024-03-07T10:44:48;6.53;93.74
72114;SHT31;59989;46.220;19.888;2024-03-07T10:47:55;6.67;94.00
72114;SHT31;59989;46.220;19.888;2024-03-07T10:51:14;6.76;94.16
72114;SHT31;59989;46.220;19.888;2024-03-07T10:54:34;6.71;93.84
72114;SHT31;59989;46.220;19.888;2024-03-07T10:57:51;6.82;93.96
72114;SHT31;59989;46.220;19.888;2024-03-07T11:01:01;6.68;93.96
72114;SHT31;59989;46.220;19.888;2024-03-07T11:04:07;6.78;94.10
72114;SHT31;59989;46.220;19.888;2024-03-07T11:07:09;6.85;94.35
72114;SHT31;59989;46.220;19.888;2024-03-07T11:10:13;6.76;94.02
72114;SHT31;59989;46.220;19.888;2024-03-07T11:13:16;6.67;94.07
72114;SHT31;59989;46.220;19.888;2024-03-07T11:16:21;6.80;94.10
72114;SHT31;59989;46.220;19.888;2024-03-07T11:19:30;6.90;93.94
72114;SHT31;59989;46.220;19.888;2024-03-07T11:22:34;6.99;94.16
72114;SHT31;59989;46.220;19.888;2024-03-07T11:25:37;6.89;93.58
72114;SHT31;59989;46.220;19.888;2024-03-07T11:28:42;6.96;93.80
72114;SHT31;59989;46.220;19.888;2024-03-07T11:31:45;6.93;94.14
72114;SHT31;59989;46.220;19.888;2024-03-07T11:34:48;6.86;93.97
72114;SHT31;59989;46.220;19.888;2024-03-07T11:37:56;6.92;93.73
72114;SHT31;59989;46.220;19.888;2024-03-07T11:41:00;6.95;93.17
72114;SHT31;59989;46.220;19.888;2024-03-07T11:44:04;6.92;93.53
72114;SHT31;59989;46.220;19.888;2024-03-07T11:47:08;6.90;93.77
72114;SHT31;59989;46.220;19.888;2024-03-07T11:50:13;7.11;93.85
72114;SHT31;59989;46.220;19.888;2024-03-07T11:53:16;7.19;93.62
72114;SHT31;59989;46.220;19.888;2024-03-07T11:56:19;7.17;93.58
72114;SHT31;59989;46.220;19.888;2024-03-07T11:59:23;7.03;93.02
72114;SHT31;59989;46.220;19.888;2024-03-07T12:02:26;7.00;93.73
72114;SHT31;59989;46.220;19.888;2024-03-07T12:05:32;6.97;93.61
72114;SHT31;59989;46.220;19.888;2024-03-07T12:08:35;7.06;94.11
72114;SHT31;59989;46.220;19.888;2024-03-07T12:11:38;6.93;93.77
72114;SHT31;59989;46.220;19.888;2024-03-07T12:14:43;6.86;94.02
72114;SHT31;59989;46.220;19.888;2024-03-07T12:17:47;6.90;93.83
72114;SHT31;59989;46.220;19.888;2024-03-07T12:20:52;6.92;94.35
72114;SHT31;59989;46.220;19.888;2024-03-07T12:24:12;6.99;94.07
72114;SHT31;59989;46.220;19.888;2024-03-07T12:27:16;7.07;94.13
72114;SHT31;59989;46.220;19.888;2024-03-07T12:30:18;7.06;94.16
72114;SHT31;59989;46.220;19.888;2024-03-07T12:33:23;6.89;93.91
72114;SHT31;59989;46.220;19.888;2024-03-07T12:36:29;6.86;94.01
72114;SHT31;59989;46.220;19.888;2024-03-07T12:39:37;6.96;94.24
72114;SHT31;59989;46.220;19.888;2024-03-07T12:42:52;7.00;94.36
72114;SHT31;59989;46.220;19.888;2024-03-07T12:45:58;6.97;94.02
72114;SHT31;59989;46.220;19.888;2024-03-07T12:49:03;7.01;94.16
72114;SHT31;59989;46.220;19.888;2024-03-07T12:52:07;6.96;94.09
72114;SHT31;59989;46.220;19.888;2024-03-07T12:55:11;6.96;93.95
72114;SHT31;59989;46.220;19.888;2024-03-07T12:58:16;6.83;93.70
72114;SHT31;59989;46.220;19.888;2024-03-07T13:01:20;6.92;94.25
72114;SHT31;59989;46.220;19.888;2024-03-07T13:04:25;6.95;94.68
72114;SHT31;59989;46.220;19.888;2024-03-07T13:07:32;6.88;94.54
72114;SHT31;59989;46.220;19.888;2024-03-07T13:10:36;6.95;94.72
72114;SHT31;59989;46.220;19.888;2024-03-07T13:13:40;6.95;94.49
72114;SHT31;59989;46.220;19.888;2024-03-07T13:16:43;6.97;94.76
72114;SHT31;59989;46.220;19.888;2024-03-07T13:19:46;6.93;94.48
72114;SHT31;59989;46.220;19.888;2024-03-07T13:22:54;6.97;94.79
72114;SHT31;59989;46.220;19.888;2024-03-07T13:26:01;6.99;94.33
72114;SHT31;59989;46.220;19.888;2024-03-07T13:29:04;7.03;94.21
72114;SHT31;59989;46.220;19.888;2024-03-07T13:32:09;7.04;94.05
72114;SHT31;59989;46.220;19.888;2024-03-07T13:35:12;7.10;93.83
72114;SHT31;59989;46.220;19.888;2024-03-07T13:38:15;7.14;94.01
72114;SHT31;59989;46.220;19.888;2024-03-07T13:41:19;7.26;94.10
72114;SHT31;59989;46.220;19.888;2024-03-07T13:44:22;7.40;93.78
72114;SHT31;59989;46.220;19.888;2024-03-07T13:47:25;7.51;93.00
72114;SHT31;59989;46.220;19.888;2024-03-07T13:50:28;7.51;92.39
72114;SHT31;59989;46.220;19.888;2024-03-07T13:53:52;7.61;92.62
72114;SHT31;59989;46.220;19.888;2024-03-07T13:57:22;7.43;91.85
72114;SHT31;59989;46.220;19.888;2024-03-07T14:00:52;7.62;92.39
72114;SHT31;59989;46.220;19.888;2024-03-07T14:04:08;7.59;92.58
72114;SHT31;59989;46.220;19.888;2024-03-07T14:08:00;7.58;91.88
72114;SHT31;59989;46.220;19.888;2024-03-07T14:14:57;7.64;92.84
72114;SHT31;59989;46.220;19.888;2024-03-07T14:25:48;7.64;92.52
72114;SHT31;59989;46.220;19.888;2024-03-07T14:32:13;7.61;92.66
72114;SHT31;59989;46.220;19.888;2024-03-07T14:39:13;7.74;91.75
72114;SHT31;59989;46.220;19.888;2024-03-07T14:42:25;7.69;92.03
72114;SHT31;59989;46.220;19.888;2024-03-07T14:45:32;7.81;91.62
72114;SHT31;59989;46.220;19.888;2024-03-07T14:48:39;7.88;92.26
72114;SHT31;59989;46.220;19.888;2024-03-07T14:51:42;7.95;91.64
72114;SHT31;59989;46.220;19.888;2024-03-07T14:55:00;7.92;91.19
72114;SHT31;59989;46.220;19.888;2024-03-07T14:58:03;7.96;91.19
72114;SHT31;59989;46.220;19.888;2024-03-07T15:01:05;7.99;91.85
72114;SHT31;59989;46.220;19.888;2024-03-07T15:04:09;7.61;91.60
72114;SHT31;59989;46.220;19.888;2024-03-07T15:07:13;7.62;92.32
72114;SHT31;59989;46.220;19.888;2024-03-07T15:10:19;7.62;92.18
72114;SHT31;59989;46.220;19.888;2024-03-07T15:13:23;7.54;92.32
72114;SHT31;59989;46.220;19.888;2024-03-07T15:16:25;7.54;92.70
72114;SHT31;59989;46.220;19.888;2024-03-07T15:19:37;7.61;92.77
72114;SHT31;59989;46.220;19.888;2024-03-07T15:22:41;7.57;92.84
72114;SHT31;59989;46.220;19.888;2024-03-07T15:25:48;7.43;92.82
72114;SHT31;59989;46.220;19.888;2024-03-07T15:28:52;7.40;93.06
72114;SHT31;59989;46.220;19.888;2024-03-07T15:31:54;7.31;93.40
72114;SHT31;59989;46.220;19.888;2024-03-07T15:34:59;7.28;93.41
72114;SHT31;59989;46.220;19.888;2024-03-07T15:38:04;7.40;93.42
72114;SHT31;59989;46.220;19.888;2024-03-07T15:41:07;7.30;93.43
72114;SHT31;59989;46.220;19.888;2024-03-07T15:44:12;7.35;93.53
72114;SHT31;59989;46.220;19.888;2024-03-07T15:47:19;7.37;93.56
72114;SHT31;59989;46.220;19.888;2024-03-07T15:50:22;7.24;93.95
72114;SHT31;59989;46.220;19.888;2024-03-07T15:53:26;7.19;93.80
72114;SHT31;59989;46.220;19.888;2024-03-07T15:56:30;7.19;94.10
72114;SHT31;59989;46.220;19.888;2024-03-07T15:59:33;7.17;93.65
72114;SHT31;59989;46.220;19.888;2024-03-07T16:02:37;7.10;93.54
72114;SHT31;59989;46.220;19.888;2024-03-07T16:05:42;7.04;93.81
72114;SHT31;59989;46.220;19.888;2024-03-07T16:08:48;7.01;93.98
72114;SHT31;59989;46.220;19.888;2024-03-07T16:11:51;7.01;94.00
72114;SHT31;59989;46.220;19.888;2024-03-07T16:14:56;7.03;93.78
72114;SHT31;59989;46.220;19.888;2024-03-07T16:17:59;6.99;93.49
72114;SHT31;59989;46.220;19.888;2024-03-07T16:21:02;6.90;93.65
72114;SHT31;59989;46.220;19.888;2024-03-07T16:24:05;6.83;93.67
72114;SHT31;59989;46.220;19.888;2024-03-07T16:27:11;6.85;93.56
72114;SHT31;59989;46.220;19.888;2024-03-07T16:30:18;6.78;93.93
72114;SHT31;59989;46.220;19.888;2024-03-07T16:33:21;6.67;93.46
72114;SHT31;59989;46.220;19.888;2024-03-07T16:36:27;6.67;93.93
72114;SHT31;59989;46.220;19.888;2024-03-07T16:39:30;6.61;93.96
72114;SHT31;59989;46.220;19.888;2024-03-07T16:42:38;6.56;94.15
72114;SHT31;59989;46.220;19.888;2024-03-07T16:45:42;6.53;94.06
72114;SHT31;59989;46.220;19.888;2024-03-07T16:48:45;6.51;94.50
72114;SHT31;59989;46.220;19.888;2024-03-07T16:51:49;6.51;94.41
72114;SHT31;59989;46.220;19.888;2024-03-07T16:54:51;6.45;94.59
72114;SHT31;59989;46.220;19.888;2024-03-07T16:57:54;6.44;94.62
72114;SHT31;59989;46.220;19.888;2024-03-07T17:01:00;6.42;94.77
72114;SHT31;59989;46.220;19.888;2024-03-07T17:04:02;6.46;94.78
72114;SHT31;59989;46.220;19.888;2024-03-07T17:07:05;6.45;94.95
72114;SHT31;59989;46.220;19.888;2024-03-07T17:10:10;6.41;94.86
72114;SHT31;59989;46.220;19.888;2024-03-07T17:13:18;6.44;94.92
72114;SHT31;59989;46.220;19.888;2024-03-07T17:16:23;6.41;95.08
72114;SHT31;59989;46.220;19.888;2024-03-07T17:19:26;6.40;95.03
72114;SHT31;59989;46.220;19.888;2024-03-07T17:22:28;6.42;95.23
72114;SHT31;59989;46.220;19.888;2024-03-07T17:25:31;6.45;95.28
72114;SHT31;59989;46.220;19.888;2024-03-07T17:28:33;6.44;95.23
72114;SHT31;59989;46.220;19.888;2024-03-07T17:31:36;6.46;95.35
72114;SHT31;59989;46.220;19.888;2024-03-07T17:34:38;6.44;95.41
72114;SHT31;59989;46.220;19.888;2024-03-07T17:37:44;6.45;95.42
72114;SHT31;59989;46.220;19.888;2024-03-07T17:40:47;6.37;95.27
72114;SHT31;59989;46.220;19.888;2024-03-07T17:43:49;6.31;95.25
72114;SHT31;59989;46.220;19.888;2024-03-07T17:46:52;6.31;95.39
72114;SHT31;59989;46.220;19.888;2024-03-07T17:49:54;6.30;95.33
72114;SHT31;59989;46.220;19.888;2024-03-07T17:53:01;6.27;95.46
72114;SHT31;59989;46.220;19.888;2024-03-07T17:56:05;6.24;95.48
72114;SHT31;59989;46.220;19.888;2024-03-07T17:59:09;6.24;95.49
72114;SHT31;59989;46.220;19.888;2024-03-07T18:02:14;6.27;95.57
72114;SHT31;59989;46.220;19.888;2024-03-07T18:05:19;6.32;95.52
72114;SHT31;59989;46.220;19.888;2024-03-07T18:08:22;6.25;95.64
72114;SHT31;59989;46.220;19.888;2024-03-07T18:11:43;6.31;95.56
72114;SHT31;59989;46.220;19.888;2024-03-07T18:14:46;6.34;95.52
72114;SHT31;59989;46.220;19.888;2024-03-07T18:18:13;6.35;95.61
72114;SHT31;59989;46.220;19.888;2024-03-07T18:21:18;6.38;95.62
72114;SHT31;59989;46.220;19.888;2024-03-07T18:24:21;6.40;95.53
72114;SHT31;59989;46.220;19.888;2024-03-07T18:27:24;6.35;95.54
72114;SHT31;59989;46.220;19.888;2024-03-07T18:30:27;6.35;95.54
72114;SHT31;59989;46.220;19.888;2024-03-07T18:33:32;6.38;95.64
72114;SHT31;59989;46.220;19.888;2024-03-07T18:36:35;6.38;95.62
72114;SHT31;59989;46.220;19.888;2024-03-07T18:39:38;6.35;95.69
72114;SHT31;59989;46.220;19.888;2024-03-07T18:42:48;6.27;95.86
72114;SHT31;59989;46.220;19.888;2024-03-07T18:45:53;6.30;96.02
72114;SHT31;59989;46.220;19.888;2024-03-07T18:48:56;6.31;96.06
72114;SHT31;59989;46.220;19.888;2024-03-07T18:51:59;6.30;96.09
72114;SHT31;59989;46.220;19.888;2024-03-07T18:55:02;6.25;96.21
72114;SHT31;59989;46.220;19.888;2024-03-07T18:58:19;6.24;96.29
72114;SHT31;59989;46.220;19.888;2024-03-07T19:01:28;6.24;96.15
72114;SHT31;59989;46.220;19.888;2024-03-07T19:04:31;6.24;96.13
72114;SHT31;59989;46.220;19.888;2024-03-07T19:07:34;6.27;96.05
72114;SHT31;59989;46.220;19.888;2024-03-07T19:10:37;6.24;95.89
72114;SHT31;59989;46.220;19.888;2024-03-07T19:13:40;6.24;96.02
72114;SHT31;59989;46.220;19.888;2024-03-07T19:16:48;6.21;96.19
72114;SHT31;59989;46.220;19.888;2024-03-07T19:19:54;6.22;96.07
72114;SHT31;59989;46.220;19.888;2024-03-07T19:22:57;6.17;95.99
72114;SHT31;59989;46.220;19.888;2024-03-07T19:26:01;6.21;95.97
72114;SHT31;59989;46.220;19.888;2024-03-07T19:29:06;6.18;95.92
72114;SHT31;59989;46.220;19.888;2024-03-07T19:32:09;6.20;95.85
72114;SHT31;59989;46.220;19.888;2024-03-07T19:35:15;6.17;96.11
72114;SHT31;59989;46.220;19.888;2024-03-07T19:38:18;6.14;96.02
72114;SHT31;59989;46.220;19.888;2024-03-07T19:41:21;6.10;96.03
72114;SHT31;59989;46.220;19.888;2024-03-07T19:44:25;6.07;95.87